sensor_id;sensor_type;location;lat;lon;timestamp;pressure;altitude;pressure_sealevel;temperature;humidity
6530;BME280;3298;42.688;23.366;2023-03-13T00:01:29;51758.03;;;-145.06;47.37
6530;BME280;3298;42.688;23.366;2023-03-13T00:03:56;51729.38;;;-145.06;47.43
6530;BME280;3298;42.688;23.366;2023-03-13T00:06:25;51753.94;;;-145.06;47.37
6530;BME280;3298;42.688;23.366;2023-03-13T00:08:53;51741.66;;;-145.06;47.60
6530;BME280;3298;42.688;23.366;2023-03-13T00:11:20;51749.84;;;-145.06;47.65
6530;BME280;3298;42.688;23.366;2023-03-13T00:13:47;51717.09;;;-145.06;47.49
6530;BME280;3298;42.688;23.366;2023-03-13T00:16:15;51698.66;;;-145.06;47.16
6530;BME280;3298;42.688;23.366;2023-03-13T00:18:45;51753.94;;;-145.06;47.21
6530;BME280;3298;42.688;23.366;2023-03-13T00:21:13;51713.00;;;-145.06;47.35
6530;BME280;3298;42.688;23.366;2023-03-13T00:23:42;51719.13;;;-145.06;47.49
6530;BME280;3298;42.688;23.366;2023-03-13T00:26:10;51729.38;;;-145.06;47.73
6530;BME280;3298;42.688;23.366;2023-03-13T00:28:38;51749.84;;;-145.06;47.57
6530;BME280;3298;42.688;23.366;2023-03-13T00:31:07;51733.47;;;-145.06;47.53
6530;BME280;3298;42.688;23.366;2023-03-13T00:33:36;51721.19;;;-145.06;47.36
6530;BME280;3298;42.688;23.366;2023-03-13T00:36:04;51733.47;;;-145.06;47.65
6530;BME280;3298;42.688;23.366;2023-03-13T00:38:32;51749.84;;;-145.06;47.88
6530;BME280;3298;42.688;23.366;2023-03-13T00:41:02;51717.09;;;-145.06;47.85
6530;BME280;3298;42.688;23.366;2023-03-13T00:43:30;51758.03;;;-145.06;47.96
6530;BME280;3298;42.688;23.366;2023-03-13T00:45:57;51727.31;;;-145.06;47.96
6530;BME280;3298;42.688;23.366;2023-03-13T00:48:24;51717.09;;;-145.06;47.99
6530;BME280;3298;42.688;23.366;2023-03-13T00:50:51;51745.75;;;-145.06;48.09
6530;BME280;3298;42.688;23.366;2023-03-13T00:53:18;51715.03;;;-145.06;48.50
6530;BME280;3298;42.688;23.366;2023-03-13T00:55:53;51713.00;;;-145.06;47.97
6530;BME280;3298;42.688;23.366;2023-03-13T00:58:22;51749.84;;;-145.06;48.01
6530;BME280;3298;42.688;23.366;2023-03-13T01:00:51;51739.59;;;-145.06;48.22
6530;BME280;3298;42.688;23.366;2023-03-13T01:03:19;51704.81;;;-145.06;48.29
6530;BME280;3298;42.688;23.366;2023-03-13T01:05:54;51719.13;;;-145.06;48.22
6530;BME280;3298;42.688;23.366;2023-03-13T01:08:21;51715.03;;;-145.06;48.36
6530;BME280;3298;42.688;23.366;2023-03-13T01:10:48;51753.94;;;-145.06;48.48
6530;BME280;3298;42.688;23.366;2023-03-13T01:13:14;51729.38;;;-145.06;48.72
6530;BME280;3298;42.688;23.366;2023-03-13T01:15:43;51733.47;;;-145.06;48.57
6530;BME280;3298;42.688;23.366;2023-03-13T01:18:09;51745.75;;;-145.06;48.12
6530;BME280;3298;42.688;23.366;2023-03-13T01:20:39;51729.38;;;-145.06;48.42
6530;BME280;3298;42.688;23.366;2023-03-13T01:23:06;51721.19;;;-145.06;48.17
6530;BME280;3298;42.688;23.366;2023-03-13T01:25:35;51723.22;;;-145.06;48.22
6530;BME280;3298;42.688;23.366;2023-03-13T01:28:01;51755.97;;;-145.06;49.00
6530;BME280;3298;42.688;23.366;2023-03-13T01:30:28;51717.09;;;-145.06;49.44
6530;BME280;3298;42.688;23.366;2023-03-13T01:32:57;51727.31;;;-145.06;49.45
6530;BME280;3298;42.688;23.366;2023-03-13T01:35:23;51745.75;;;-145.06;49.26
6530;BME280;3298;42.688;23.366;2023-03-13T01:37:50;51743.69;;;-145.06;48.95
6530;BME280;3298;42.688;23.366;2023-03-13T01:40:17;51725.28;;;-145.06;49.08
6530;BME280;3298;42.688;23.366;2023-03-13T01:42:51;51729.38;;;-145.06;48.60
6530;BME280;3298;42.688;23.366;2023-03-13T01:45:53;51717.09;;;-145.06;49.13
6530;BME280;3298;42.688;23.366;2023-03-13T01:48:26;51698.66;;;-145.06;49.03
6530;BME280;3298;42.688;23.366;2023-03-13T01:50:54;51713.00;;;-145.06;49.95
6530;BME280;3298;42.688;23.366;2023-03-13T01:53:22;51713.00;;;-145.06;50.22
6530;BME280;3298;42.688;23.366;2023-03-13T01:55:52;51731.41;;;-145.06;50.32
6530;BME280;3298;42.688;23.366;2023-03-13T01:58:19;51733.47;;;-145.06;51.10
6530;BME280;3298;42.688;23.366;2023-03-13T02:00:46;51721.19;;;-145.06;51.25
6530;BME280;3298;42.688;23.366;2023-03-13T02:03:16;51721.19;;;-145.06;51.89
6530;BME280;3298;42.688;23.366;2023-03-13T02:05:46;51737.56;;;-145.06;52.51
6530;BME280;3298;42.688;23.366;2023-03-13T02:08:15;51715.03;;;-145.06;52.15
6530;BME280;3298;42.688;23.366;2023-03-13T02:10:49;51737.56;;;-145.06;52.36
6530;BME280;3298;42.688;23.366;2023-03-13T02:13:17;51733.47;;;-145.06;52.74
6530;BME280;3298;42.688;23.366;2023-03-13T02:15:46;51688.44;;;-145.06;53.40
6530;BME280;3298;42.688;23.366;2023-03-13T02:18:14;51741.66;;;-145.06;53.53
6530;BME280;3298;42.688;23.366;2023-03-13T02:20:41;51739.59;;;-145.06;53.29
6530;BME280;3298;42.688;23.366;2023-03-13T02:23:13;51733.47;;;-145.06;53.36
6530;BME280;3298;42.688;23.366;2023-03-13T02:25:47;51706.84;;;-145.06;54.16
6530;BME280;3298;42.688;23.366;2023-03-13T02:28:16;51749.84;;;-145.06;53.77
6530;BME280;3298;42.688;23.366;2023-03-13T02:30:46;51755.97;;;-145.06;54.11
6530;BME280;3298;42.688;23.366;2023-03-13T02:33:14;51713.00;;;-145.06;54.10
6530;BME280;3298;42.688;23.366;2023-03-13T02:35:42;51704.81;;;-145.06;54.25
6530;BME280;3298;42.688;23.366;2023-03-13T02:38:13;51713.00;;;-145.06;54.39
6530;BME280;3298;42.688;23.366;2023-03-13T02:40:44;51733.47;;;-145.06;54.33
6530;BME280;3298;42.688;23.366;2023-03-13T02:43:16;51733.47;;;-145.06;54.44
6530;BME280;3298;42.688;23.366;2023-03-13T02:46:02;51717.09;;;-145.06;54.33
6530;BME280;3298;42.688;23.366;2023-03-13T02:48:31;51721.19;;;-145.06;54.73
6530;BME280;3298;42.688;23.366;2023-03-13T02:51:00;51700.72;;;-145.06;54.88
6530;BME280;3298;42.688;23.366;2023-03-13T02:53:27;51731.41;;;-145.06;54.53
6530;BME280;3298;42.688;23.366;2023-03-13T02:55:56;51692.53;;;-145.06;54.21
6530;BME280;3298;42.688;23.366;2023-03-13T02:58:23;51717.09;;;-145.06;54.23
6530;BME280;3298;42.688;23.366;2023-03-13T03:00:51;51713.00;;;-145.06;54.62
6530;BME280;3298;42.688;23.366;2023-03-13T03:03:18;51717.09;;;-145.06;53.92
6530;BME280;3298;42.688;23.366;2023-03-13T03:05:45;51737.56;;;-145.06;54.41
6530;BME280;3298;42.688;23.366;2023-03-13T03:08:11;51715.03;;;-145.06;54.34
6530;BME280;3298;42.688;23.366;2023-03-13T03:10:38;51676.16;;;-145.06;54.60
6530;BME280;3298;42.688;23.366;2023-03-13T03:13:06;51719.13;;;-145.06;54.75
6530;BME280;3298;42.688;23.366;2023-03-13T03:15:33;51719.13;;;-145.06;55.15
6530;BME280;3298;42.688;23.366;2023-03-13T03:18:00;51725.28;;;-145.06;55.28
6530;BME280;3298;42.688;23.366;2023-03-13T03:20:27;51727.31;;;-145.06;55.62
6530;BME280;3298;42.688;23.366;2023-03-13T03:22:53;51729.38;;;-145.06;55.02
6530;BME280;3298;42.688;23.366;2023-03-13T03:25:20;51733.47;;;-145.06;55.05
6530;BME280;3298;42.688;23.366;2023-03-13T03:27:47;51753.94;;;-145.06;55.42
6530;BME280;3298;42.688;23.366;2023-03-13T03:30:16;51708.91;;;-145.06;56.31
6530;BME280;3298;42.688;23.366;2023-03-13T03:32:42;51704.81;;;-145.06;55.35
6530;BME280;3298;42.688;23.366;2023-03-13T03:35:09;51721.19;;;-145.06;55.28
6530;BME280;3298;42.688;23.366;2023-03-13T03:37:36;51725.28;;;-145.06;55.70
6530;BME280;3298;42.688;23.366;2023-03-13T03:40:03;51710.94;;;-145.06;55.98
6530;BME280;3298;42.688;23.366;2023-03-13T03:42:31;51715.03;;;-145.06;55.75
6530;BME280;3298;42.688;23.366;2023-03-13T03:44:57;51700.72;;;-145.06;55.90
6530;BME280;3298;42.688;23.366;2023-03-13T03:47:26;51721.19;;;-145.06;56.25
6530;BME280;3298;42.688;23.366;2023-03-13T03:49:53;51725.28;;;-145.06;56.53
6530;BME280;3298;42.688;23.366;2023-03-13T03:52:19;51696.63;;;-145.06;56.24
6530;BME280;3298;42.688;23.366;2023-03-13T03:54:46;51725.28;;;-145.06;55.94
6530;BME280;3298;42.688;23.366;2023-03-13T03:57:13;51684.34;;;-145.06;55.26
6530;BME280;3298;42.688;23.366;2023-03-13T03:59:40;51735.50;;;-145.06;55.02
6530;BME280;3298;42.688;23.366;2023-03-13T04:02:06;51723.22;;;-145.06;55.41
6530;BME280;3298;42.688;23.366;2023-03-13T04:04:35;51704.81;;;-145.06;55.69
6530;BME280;3298;42.688;23.366;2023-03-13T04:07:01;51708.91;;;-145.06;55.79
6530;BME280;3298;42.688;23.366;2023-03-13T04:09:28;51725.28;;;-145.06;55.96
6530;BME280;3298;42.688;23.366;2023-03-13T04:11:55;51708.91;;;-145.06;55.97
6530;BME280;3298;42.688;23.366;2023-03-13T04:14:22;51708.91;;;-145.06;55.90
6530;BME280;3298;42.688;23.366;2023-03-13T04:16:49;51745.75;;;-145.06;56.18
6530;BME280;3298;42.688;23.366;2023-03-13T04:19:16;51717.09;;;-145.06;56.29
6530;BME280;3298;42.688;23.366;2023-03-13T04:21:44;51702.75;;;-145.06;56.28
6530;BME280;3298;42.688;23.366;2023-03-13T04:24:10;51717.09;;;-145.06;56.87
6530;BME280;3298;42.688;23.366;2023-03-13T04:26:37;51745.75;;;-145.06;56.48
6530;BME280;3298;42.688;23.366;2023-03-13T04:29:04;51717.09;;;-145.06;56.84
6530;BME280;3298;42.688;23.366;2023-03-13T04:31:31;51708.91;;;-145.06;57.05
6530;BME280;3298;42.688;23.366;2023-03-13T04:33:58;51778.50;;;-145.06;57.05
6530;BME280;3298;42.688;23.366;2023-03-13T04:36:25;51721.19;;;-145.06;57.32
6530;BME280;3298;42.688;23.366;2023-03-13T04:38:53;51729.38;;;-145.06;57.49
6530;BME280;3298;42.688;23.366;2023-03-13T04:41:20;51725.28;;;-145.06;56.59
6530;BME280;3298;42.688;23.366;2023-03-13T04:43:46;51713.00;;;-145.06;56.78
6530;BME280;3298;42.688;23.366;2023-03-13T04:46:13;51710.94;;;-145.06;57.46
6530;BME280;3298;42.688;23.366;2023-03-13T04:48:40;51715.03;;;-145.06;56.56
6530;BME280;3298;42.688;23.366;2023-03-13T04:51:07;51721.19;;;-145.06;56.30
6530;BME280;3298;42.688;23.366;2023-03-13T04:53:34;51684.34;;;-145.06;56.21
6530;BME280;3298;42.688;23.366;2023-03-13T04:56:02;51700.72;;;-145.06;56.29
6530;BME280;3298;42.688;23.366;2023-03-13T04:58:29;51713.00;;;-145.06;56.63
6530;BME280;3298;42.688;23.366;2023-03-13T05:00:56;51737.56;;;-145.06;56.87
6530;BME280;3298;42.688;23.366;2023-03-13T05:03:23;51713.00;;;-145.06;56.72
6530;BME280;3298;42.688;23.366;2023-03-13T05:05:50;51723.22;;;-145.06;56.29
6530;BME280;3298;42.688;23.366;2023-03-13T05:08:16;51719.13;;;-145.06;56.61
6530;BME280;3298;42.688;23.366;2023-03-13T05:10:43;51723.22;;;-145.06;56.22
6530;BME280;3298;42.688;23.366;2023-03-13T05:13:11;51727.31;;;-145.06;56.48
6530;BME280;3298;42.688;23.366;2023-03-13T05:15:38;51684.34;;;-145.06;56.75
6530;BME280;3298;42.688;23.366;2023-03-13T05:18:05;51719.13;;;-145.06;56.53
6530;BME280;3298;42.688;23.366;2023-03-13T05:20:32;51692.53;;;-145.06;56.25
6530;BME280;3298;42.688;23.366;2023-03-13T05:22:58;51725.28;;;-145.06;56.56
6530;BME280;3298;42.688;23.366;2023-03-13T05:25:25;51729.38;;;-145.06;56.14
6530;BME280;3298;42.688;23.366;2023-03-13T05:27:52;51708.91;;;-145.06;56.39
6530;BME280;3298;42.688;23.366;2023-03-13T05:30:20;51713.00;;;-145.06;56.43
6530;BME280;3298;42.688;23.366;2023-03-13T05:32:47;51696.63;;;-145.06;55.61
6530;BME280;3298;42.688;23.366;2023-03-13T05:35:14;51706.84;;;-145.06;56.50
6530;BME280;3298;42.688;23.366;2023-03-13T05:37:41;51690.47;;;-145.06;55.46
6530;BME280;3298;42.688;23.366;2023-03-13T05:40:10;51717.09;;;-145.06;55.30
6530;BME280;3298;42.688;23.366;2023-03-13T05:42:38;51717.09;;;-145.06;54.75
6530;BME280;3298;42.688;23.366;2023-03-13T05:45:06;51721.19;;;-145.06;54.31
6530;BME280;3298;42.688;23.366;2023-03-13T05:47:35;51696.63;;;-145.06;55.20
6530;BME280;3298;42.688;23.366;2023-03-13T05:50:03;51708.91;;;-145.06;56.01
6530;BME280;3298;42.688;23.366;2023-03-13T05:52:30;51717.09;;;-145.06;55.91
6530;BME280;3298;42.688;23.366;2023-03-13T05:54:57;51725.28;;;-145.06;56.20
6530;BME280;3298;42.688;23.366;2023-03-13T05:57:24;51717.09;;;-145.06;55.83
6530;BME280;3298;42.688;23.366;2023-03-13T05:59:51;51721.19;;;-145.06;55.38
6530;BME280;3298;42.688;23.366;2023-03-13T06:02:18;51710.94;;;-145.06;55.51
6530;BME280;3298;42.688;23.366;2023-03-13T06:04:46;51721.19;;;-145.06;55.17
6530;BME280;3298;42.688;23.366;2023-03-13T06:07:13;51729.38;;;-145.06;54.93
6530;BME280;3298;42.688;23.366;2023-03-13T06:09:40;51719.13;;;-145.06;54.80
6530;BME280;3298;42.688;23.366;2023-03-13T06:12:07;51719.13;;;-145.06;54.82
6530;BME280;3298;42.688;23.366;2023-03-13T06:14:34;51704.81;;;-145.06;54.38
6530;BME280;3298;42.688;23.366;2023-03-13T06:17:02;51758.03;;;-145.06;54.44
6530;BME280;3298;42.688;23.366;2023-03-13T06:19:29;51717.09;;;-145.06;53.90
6530;BME280;3298;42.688;23.366;2023-03-13T06:21:57;51733.47;;;-145.06;53.59
6530;BME280;3298;42.688;23.366;2023-03-13T06:24:24;51694.56;;;-145.06;52.89
6530;BME280;3298;42.688;23.366;2023-03-13T06:26:51;51708.91;;;-145.06;52.61
6530;BME280;3298;42.688;23.366;2023-03-13T06:29:18;51717.09;;;-145.06;52.81
6530;BME280;3298;42.688;23.366;2023-03-13T06:31:44;51741.66;;;-145.06;53.19
6530;BME280;3298;42.688;23.366;2023-03-13T06:34:13;51690.47;;;-145.06;52.97
6530;BME280;3298;42.688;23.366;2023-03-13T06:36:40;51725.28;;;-145.06;52.00
6530;BME280;3298;42.688;23.366;2023-03-13T06:39:08;51717.09;;;-145.06;51.38
6530;BME280;3298;42.688;23.366;2023-03-13T06:41:35;51731.41;;;-145.06;52.03
6530;BME280;3298;42.688;23.366;2023-03-13T06:44:02;51694.56;;;-145.06;51.68
6530;BME280;3298;42.688;23.366;2023-03-13T06:46:29;51708.91;;;-145.06;51.75
6530;BME280;3298;42.688;23.366;2023-03-13T06:48:56;51700.72;;;-145.06;51.46
6530;BME280;3298;42.688;23.366;2023-03-13T06:51:25;51704.81;;;-145.06;51.48
6530;BME280;3298;42.688;23.366;2023-03-13T06:53:52;51698.66;;;-145.06;52.07
6530;BME280;3298;42.688;23.366;2023-03-13T06:56:20;51737.56;;;-145.06;51.77
6530;BME280;3298;42.688;23.366;2023-03-13T06:58:48;51721.19;;;-145.06;51.67
6530;BME280;3298;42.688;23.366;2023-03-13T07:01:15;51788.72;;;-145.06;51.43
6530;BME280;3298;42.688;23.366;2023-03-13T07:03:43;51710.94;;;-145.06;51.33
6530;BME280;3298;42.688;23.366;2023-03-13T07:06:10;51725.28;;;-145.06;51.04
6530;BME280;3298;42.688;23.366;2023-03-13T07:08:37;51723.22;;;-145.06;51.75
6530;BME280;3298;42.688;23.366;2023-03-13T07:11:06;51700.72;;;-145.06;51.75
6530;BME280;3298;42.688;23.366;2023-03-13T07:13:35;51717.09;;;-145.06;51.82
6530;BME280;3298;42.688;23.366;2023-03-13T07:16:03;51696.63;;;-145.06;51.49
6530;BME280;3298;42.688;23.366;2023-03-13T07:18:31;51717.09;;;-145.06;50.54
6530;BME280;3298;42.688;23.366;2023-03-13T07:21:00;51719.13;;;-145.06;50.03
6530;BME280;3298;42.688;23.366;2023-03-13T07:23:29;51721.19;;;-145.06;49.99
6530;BME280;3298;42.688;23.366;2023-03-13T07:25:57;51721.19;;;-145.06;49.97
6530;BME280;3298;42.688;23.366;2023-03-13T07:28:26;51717.09;;;-145.06;49.68
6530;BME280;3298;42.688;23.366;2023-03-13T07:30:54;51737.56;;;-145.06;49.74
6530;BME280;3298;42.688;23.366;2023-03-13T07:33:21;51731.41;;;-145.06;50.12
6530;BME280;3298;42.688;23.366;2023-03-13T07:35:48;51682.28;;;-145.06;50.29
6530;BME280;3298;42.688;23.366;2023-03-13T07:38:15;51749.84;;;-145.06;49.95
6530;BME280;3298;42.688;23.366;2023-03-13T07:40:49;51708.91;;;-145.06;50.46
6530;BME280;3298;42.688;23.366;2023-03-13T07:43:16;51708.91;;;-145.06;50.29
6530;BME280;3298;42.688;23.366;2023-03-13T07:45:50;51735.50;;;-145.06;50.25
6530;BME280;3298;42.688;23.366;2023-03-13T07:48:19;51717.09;;;-145.06;50.22
6530;BME280;3298;42.688;23.366;2023-03-13T07:50:46;51721.19;;;-145.06;50.34
6530;BME280;3298;42.688;23.366;2023-03-13T07:53:13;51766.22;;;-145.06;50.27
6530;BME280;3298;42.688;23.366;2023-03-13T07:55:51;51721.19;;;-145.06;49.55
6530;BME280;3298;42.688;23.366;2023-03-13T07:58:18;51741.66;;;-145.06;49.20
6530;BME280;3298;42.688;23.366;2023-03-13T08:00:45;51723.22;;;-145.06;49.77
6530;BME280;3298;42.688;23.366;2023-03-13T08:03:12;51731.41;;;-145.06;49.54
6530;BME280;3298;42.688;23.366;2023-03-13T08:05:40;51721.19;;;-145.06;49.19
6530;BME280;3298;42.688;23.366;2023-03-13T08:08:07;51717.09;;;-145.06;49.24
6530;BME280;3298;42.688;23.366;2023-03-13T08:10:34;51723.22;;;-145.06;48.83
6530;BME280;3298;42.688;23.366;2023-03-13T08:13:01;51751.88;;;-145.06;49.08
6530;BME280;3298;42.688;23.366;2023-03-13T08:15:27;51737.56;;;-145.06;49.40
6530;BME280;3298;42.688;23.366;2023-03-13T08:17:55;51729.38;;;-145.06;48.52
6530;BME280;3298;42.688;23.366;2023-03-13T08:20:22;51723.22;;;-145.06;48.86
6530;BME280;3298;42.688;23.366;2023-03-13T08:22:50;51733.47;;;-145.06;48.66
6530;BME280;3298;42.688;23.366;2023-03-13T08:25:17;51743.69;;;-145.06;48.25
6530;BME280;3298;42.688;23.366;2023-03-13T08:27:44;51721.19;;;-145.06;48.68
6530;BME280;3298;42.688;23.366;2023-03-13T08:30:11;51725.28;;;-145.06;48.04
6530;BME280;3298;42.688;23.366;2023-03-13T08:32:38;51721.19;;;-145.06;48.01
6530;BME280;3298;42.688;23.366;2023-03-13T08:35:06;51753.94;;;-145.06;47.99
6530;BME280;3298;42.688;23.366;2023-03-13T08:37:33;51704.81;;;-145.06;47.88
6530;BME280;3298;42.688;23.366;2023-03-13T08:40:01;51725.28;;;-145.06;47.02
6530;BME280;3298;42.688;23.366;2023-03-13T08:42:35;51747.78;;;-145.06;47.40
6530;BME280;3298;42.688;23.366;2023-03-13T08:45:01;51708.91;;;-145.06;46.97
6530;BME280;3298;42.688;23.366;2023-03-13T08:47:28;51725.28;;;-145.06;46.56
6530;BME280;3298;42.688;23.366;2023-03-13T08:49:55;51713.00;;;-145.06;46.51
6530;BME280;3298;42.688;23.366;2023-03-13T08:52:22;51743.69;;;-145.06;46.37
6530;BME280;3298;42.688;23.366;2023-03-13T08:54:49;51729.38;;;-145.06;45.70
6530;BME280;3298;42.688;23.366;2023-03-13T08:57:17;51713.00;;;-145.06;45.72
6530;BME280;3298;42.688;23.366;2023-03-13T08:59:44;51729.38;;;-145.06;45.77
6530;BME280;3298;42.688;23.366;2023-03-13T09:02:11;51684.34;;;-145.06;46.24
6530;BME280;3298;42.688;23.366;2023-03-13T09:04:44;51713.00;;;-145.06;46.09
6530;BME280;3298;42.688;23.366;2023-03-13T09:07:11;51741.66;;;-145.06;45.88
6530;BME280;3298;42.688;23.366;2023-03-13T09:09:38;51721.19;;;-145.06;46.23
6530;BME280;3298;42.688;23.366;2023-03-13T09:12:05;51739.59;;;-145.06;45.91
6530;BME280;3298;42.688;23.366;2023-03-13T09:14:33;51739.59;;;-145.06;46.00
6530;BME280;3298;42.688;23.366;2023-03-13T09:17:00;51719.13;;;-145.06;45.11
6530;BME280;3298;42.688;23.366;2023-03-13T09:19:28;51708.91;;;-145.06;45.70
6530;BME280;3298;42.688;23.366;2023-03-13T09:21:55;51713.00;;;-145.06;45.32
6530;BME280;3298;42.688;23.366;2023-03-13T09:24:22;51743.69;;;-145.06;44.83
6530;BME280;3298;42.688;23.366;2023-03-13T09:26:49;51741.66;;;-145.06;45.16
6530;BME280;3298;42.688;23.366;2023-03-13T09:29:15;51737.56;;;-145.06;45.15
6530;BME280;3298;42.688;23.366;2023-03-13T09:31:43;51745.75;;;-145.06;44.46
6530;BME280;3298;42.688;23.366;2023-03-13T09:34:10;51713.00;;;-145.06;44.25
6530;BME280;3298;42.688;23.366;2023-03-13T09:36:37;51741.66;;;-145.06;44.17
6530;BME280;3298;42.688;23.366;2023-03-13T09:39:04;51749.84;;;-145.06;44.72
6530;BME280;3298;42.688;23.366;2023-03-13T09:41:34;51729.38;;;-145.06;44.28
6530;BME280;3298;42.688;23.366;2023-03-13T09:44:08;51725.28;;;-145.06;44.04
6530;BME280;3298;42.688;23.366;2023-03-13T09:46:40;51731.41;;;-145.06;44.28
6530;BME280;3298;42.688;23.366;2023-03-13T09:49:25;51747.78;;;-145.06;44.07
6530;BME280;3298;42.688;23.366;2023-03-13T09:52:00;51741.66;;;-145.06;43.54
6530;BME280;3298;42.688;23.366;2023-03-13T09:54:33;51717.09;;;-145.06;43.88
6530;BME280;3298;42.688;23.366;2023-03-13T09:57:05;51731.41;;;-145.06;44.01
6530;BME280;3298;42.688;23.366;2023-03-13T09:59:39;51717.09;;;-145.06;43.71
6530;BME280;3298;42.688;23.366;2023-03-13T10:02:18;51751.88;;;-145.06;42.67
6530;BME280;3298;42.688;23.366;2023-03-13T10:04:51;51770.31;;;-145.06;42.63
6530;BME280;3298;42.688;23.366;2023-03-13T10:07:19;51741.66;;;-145.06;43.10
6530;BME280;3298;42.688;23.366;2023-03-13T10:09:46;51743.69;;;-145.06;42.67
6530;BME280;3298;42.688;23.366;2023-03-13T10:12:18;51751.88;;;-145.06;42.32
6530;BME280;3298;42.688;23.366;2023-03-13T10:14:51;51735.50;;;-145.06;42.94
6530;BME280;3298;42.688;23.366;2023-03-13T10:17:29;51729.38;;;-145.06;42.60
6530;BME280;3298;42.688;23.366;2023-03-13T10:20:00;51735.50;;;-145.06;42.14
6530;BME280;3298;42.688;23.366;2023-03-13T10:22:32;51741.66;;;-145.06;42.14
6530;BME280;3298;42.688;23.366;2023-03-13T10:25:03;51733.47;;;-145.06;42.67
6530;BME280;3298;42.688;23.366;2023-03-13T10:27:42;51766.22;;;-145.06;41.88
6530;BME280;3298;42.688;23.366;2023-03-13T10:30:20;51725.28;;;-145.06;42.27
6530;BME280;3298;42.688;23.366;2023-03-13T10:32:48;51725.28;;;-145.06;41.95
6530;BME280;3298;42.688;23.366;2023-03-13T10:35:22;51735.50;;;-145.06;42.08
6530;BME280;3298;42.688;23.366;2023-03-13T10:37:49;51708.91;;;-145.06;41.74
6530;BME280;3298;42.688;23.366;2023-03-13T10:40:20;51708.91;;;-145.06;41.79
6530;BME280;3298;42.688;23.366;2023-03-13T10:42:50;51755.97;;;-145.06;41.30
6530;BME280;3298;42.688;23.366;2023-03-13T10:45:19;51743.69;;;-145.06;41.00
6530;BME280;3298;42.688;23.366;2023-03-13T10:47:53;51731.41;;;-145.06;40.38
6530;BME280;3298;42.688;23.366;2023-03-13T10:50:25;51713.00;;;-145.06;40.42
6530;BME280;3298;42.688;23.366;2023-03-13T10:52:52;51723.22;;;-145.06;40.62
6530;BME280;3298;42.688;23.366;2023-03-13T10:55:21;51702.75;;;-145.06;40.26
6530;BME280;3298;42.688;23.366;2023-03-13T10:57:54;51713.00;;;-145.06;39.89
6530;BME280;3298;42.688;23.366;2023-03-13T11:00:32;51721.19;;;-145.06;39.91
6530;BME280;3298;42.688;23.366;2023-03-13T11:03:00;51729.38;;;-145.06;40.48
6530;BME280;3298;42.688;23.366;2023-03-13T11:05:40;51755.97;;;-145.06;40.38
6530;BME280;3298;42.688;23.366;2023-03-13T11:08:18;51729.38;;;-145.06;40.30
6530;BME280;3298;42.688;23.366;2023-03-13T11:10:57;51700.72;;;-145.06;40.10
6530;BME280;3298;42.688;23.366;2023-03-13T11:13:30;51713.00;;;-145.06;39.86
6530;BME280;3298;42.688;23.366;2023-03-13T11:16:05;51524.72;;;-145.06;33.25
6530;BME280;3298;42.688;23.366;2023-03-13T11:18:40;51608.63;;;-145.06;27.91
6530;BME280;3298;42.688;23.366;2023-03-13T11:21:19;51579.97;;;-145.06;26.39
6530;BME280;3298;42.688;23.366;2023-03-13T11:23:52;51504.25;;;-145.06;25.59
6530;BME280;3298;42.688;23.366;2023-03-13T11:26:27;51620.91;;;-145.06;25.18
6530;BME280;3298;42.688;23.366;2023-03-13T11:29:04;51837.84;;;-145.06;24.65
6530;BME280;3298;42.688;23.366;2023-03-13T11:31:37;51962.69;;;-145.06;24.89
6530;BME280;3298;42.688;23.366;2023-03-13T11:34:10;51882.88;;;-145.06;24.82
6530;BME280;3298;42.688;23.366;2023-03-13T11:36:46;51731.41;;;-145.06;24.53
6530;BME280;3298;42.688;23.366;2023-03-13T11:45:26;51819.44;;;-145.06;28.15
6530;BME280;3298;42.688;23.366;2023-03-13T11:47:58;51798.97;;;-145.06;29.56
6530;BME280;3298;42.688;23.366;2023-03-13T11:50:34;51745.75;;;-145.06;30.59
6530;BME280;3298;42.688;23.366;2023-03-13T11:53:15;51780.53;;;-145.06;30.97
6530;BME280;3298;42.688;23.366;2023-03-13T11:55:54;51766.22;;;-145.06;31.92
6530;BME280;3298;42.688;23.366;2023-03-13T11:58:50;51741.66;;;-145.06;32.80
6530;BME280;3298;42.688;23.366;2023-03-13T12:01:24;51729.38;;;-145.06;33.61
6530;BME280;3298;42.688;23.366;2023-03-13T12:03:56;51753.94;;;-145.06;33.54
6530;BME280;3298;42.688;23.366;2023-03-13T12:06:28;51733.47;;;-145.06;34.19
6530;BME280;3298;42.688;23.366;2023-03-13T12:09:02;51739.59;;;-145.06;33.98
6530;BME280;3298;42.688;23.366;2023-03-13T12:11:32;51749.84;;;-145.06;34.12
6530;BME280;3298;42.688;23.366;2023-03-13T12:14:05;51758.03;;;-145.06;34.34
6530;BME280;3298;42.688;23.366;2023-03-13T12:16:40;51758.03;;;-145.06;34.71
6530;BME280;3298;42.688;23.366;2023-03-13T12:19:11;51760.06;;;-145.06;34.19
6530;BME280;3298;42.688;23.366;2023-03-13T12:21:44;51760.06;;;-145.06;34.76
6530;BME280;3298;42.688;23.366;2023-03-13T12:24:22;51749.84;;;-145.06;34.61
6530;BME280;3298;42.688;23.366;2023-03-13T12:26:54;51729.38;;;-145.06;34.15
6530;BME280;3298;42.688;23.366;2023-03-13T12:29:30;51760.06;;;-145.06;34.72
6530;BME280;3298;42.688;23.366;2023-03-13T12:32:06;51751.88;;;-145.06;34.15
6530;BME280;3298;42.688;23.366;2023-03-13T12:34:38;51766.22;;;-145.06;33.93
6530;BME280;3298;42.688;23.366;2023-03-13T12:37:13;51782.59;;;-145.06;33.75
6530;BME280;3298;42.688;23.366;2023-03-13T12:39:48;51762.13;;;-145.06;34.17
6530;BME280;3298;42.688;23.366;2023-03-13T12:42:26;51737.56;;;-145.06;34.78
6530;BME280;3298;42.688;23.366;2023-03-13T12:44:56;51766.22;;;-145.06;34.98
6530;BME280;3298;42.688;23.366;2023-03-13T12:47:29;51778.50;;;-145.06;35.13
6530;BME280;3298;42.688;23.366;2023-03-13T12:50:15;51745.75;;;-145.06;35.14
6530;BME280;3298;42.688;23.366;2023-03-13T12:53:13;51770.31;;;-145.06;35.30
6530;BME280;3298;42.688;23.366;2023-03-13T12:55:57;51753.94;;;-145.06;35.59
6530;BME280;3298;42.688;23.366;2023-03-13T12:58:40;51768.25;;;-145.06;35.36
6530;BME280;3298;42.688;23.366;2023-03-13T13:01:13;51762.13;;;-145.06;35.39
6530;BME280;3298;42.688;23.366;2023-03-13T13:03:49;51758.03;;;-145.06;35.59
6530;BME280;3298;42.688;23.366;2023-03-13T13:06:17;51747.78;;;-145.06;35.02
6530;BME280;3298;42.688;23.366;2023-03-13T13:08:47;51762.13;;;-145.06;35.76